createdAt,value
2019-02-16T00:00:15.990Z,3.95
2019-02-16T00:02:41.896Z,3.55
2019-02-16T00:05:07.825Z,4.40
2019-02-16T00:07:33.626Z,3.93
2019-02-16T00:09:59.454Z,3.60
2019-02-16T00:12:25.242Z,4.63
2019-02-16T00:14:53.836Z,3.50
2019-02-16T00:17:19.630Z,5.00
2019-02-16T00:19:47.292Z,3.33
2019-02-16T00:22:13.080Z,3.80
2019-02-16T00:24:41.902Z,4.27
2019-02-16T00:27:07.700Z,3.17
2019-02-16T00:29:38.255Z,3.80
2019-02-16T00:32:04.063Z,4.33
2019-02-16T00:34:33.283Z,4.10
2019-02-16T00:36:59.152Z,4.15
2019-02-16T00:39:25.319Z,4.20
2019-02-16T00:41:51.145Z,5.25
2019-02-16T00:44:16.946Z,4.37
2019-02-16T00:46:42.736Z,4.47
2019-02-16T00:49:08.825Z,4.77
2019-02-16T00:51:37.135Z,5.20
2019-02-16T00:54:02.993Z,5.22
2019-02-16T00:56:33.011Z,4.20
2019-02-16T00:58:59.066Z,4.55
2019-02-16T01:01:27.984Z,4.35
2019-02-16T01:03:53.803Z,3.58
2019-02-16T01:06:22.623Z,5.17
2019-02-16T01:08:48.767Z,3.27
2019-02-16T01:11:17.334Z,3.83
2019-02-16T01:13:43.166Z,4.25
2019-02-16T01:16:11.845Z,4.53
2019-02-16T01:18:37.701Z,4.35
2019-02-16T01:21:03.818Z,4.50
2019-02-16T01:23:29.625Z,4.95
2019-02-16T01:25:55.732Z,5.10
2019-02-16T01:28:24.428Z,6.15
2019-02-16T01:30:50.346Z,7.20
2019-02-16T01:33:19.186Z,7.40
2019-02-16T01:35:45.019Z,7.28
2019-02-16T01:38:13.619Z,7.50
2019-02-16T01:40:39.764Z,5.95
2019-02-16T01:43:07.621Z,6.05
2019-02-16T01:45:33.715Z,5.25
2019-02-16T01:48:02.844Z,6.47
2019-02-16T01:50:28.940Z,6.60
2019-02-16T01:52:57.786Z,5.37
2019-02-16T01:55:23.850Z,4.42
2019-02-16T01:57:49.971Z,5.28
2019-02-16T02:00:15.775Z,3.45
2019-02-16T02:02:41.602Z,4.17
2019-02-16T02:05:10.541Z,4.63
2019-02-16T02:07:36.369Z,4.72
2019-02-16T02:10:06.737Z,5.33
2019-02-16T02:12:32.842Z,5.42
2019-02-16T02:14:58.732Z,5.35
2019-02-16T02:17:24.548Z,5.23
2019-02-16T02:19:53.461Z,4.97
2019-02-16T02:22:19.260Z,5.55
2019-02-16T02:24:48.119Z,5.27
2019-02-16T02:27:14.213Z,5.78
2019-02-16T02:29:43.046Z,5.40
2019-02-16T02:32:09.257Z,4.60
2019-02-16T02:34:35.089Z,4.28
2019-02-16T02:37:01.169Z,4.40
2019-02-16T02:39:26.952Z,5.10
2019-02-16T02:41:54.421Z,3.90
2019-02-16T02:44:20.527Z,5.75
2019-02-16T02:46:49.213Z,4.37
2019-02-16T02:49:15.301Z,5.15
2019-02-16T02:51:51.680Z,5.00
2019-02-16T02:54:11.701Z,4.20
2019-02-16T02:56:40.611Z,5.17
2019-02-16T02:59:06.397Z,4.17
2019-02-16T03:01:34.997Z,4.37
2019-02-16T03:04:00.838Z,4.95
2019-02-16T03:06:29.711Z,4.90
2019-02-16T03:08:55.514Z,4.20
2019-02-16T03:11:21.340Z,4.13
2019-02-16T03:13:47.419Z,3.67
2019-02-16T03:16:13.244Z,4.10
2019-02-16T03:18:40.842Z,4.73
2019-02-16T03:21:06.639Z,5.08
2019-02-16T03:23:35.743Z,4.50
2019-02-16T03:26:14.418Z,4.87
2019-02-16T03:28:52.934Z,4.17
2019-02-16T03:31:28.274Z,4.22
2019-02-16T03:34:04.050Z,4.95
2019-02-16T03:36:50.354Z,5.40
2019-02-16T03:39:16.605Z,4.87
2019-02-16T03:41:42.688Z,5.65
2019-02-16T03:44:08.526Z,5.47
2019-02-16T03:46:34.341Z,5.00
2019-02-16T03:49:00.163Z,4.47
2019-02-16T03:51:26.225Z,4.50
2019-02-16T03:53:52.046Z,5.70
2019-02-16T03:56:17.863Z,5.30
2019-02-16T03:58:43.915Z,5.33
2019-02-16T04:01:09.760Z,4.05
2019-02-16T04:03:35.581Z,5.33
2019-02-16T04:06:01.645Z,4.87
2019-02-16T04:08:27.749Z,4.85
2019-02-16T04:10:53.837Z,4.85
2019-02-16T04:13:19.661Z,5.55
2019-02-16T04:15:45.731Z,4.60
2019-02-16T04:18:11.542Z,4.20
2019-02-16T04:20:37.670Z,4.13
2019-02-16T04:23:03.471Z,6.95
2019-02-16T04:25:29.288Z,5.43
2019-02-16T04:27:55.103Z,5.00
2019-02-16T04:30:20.921Z,3.70
2019-02-16T04:32:47.101Z,4.50
2019-02-16T04:35:13.257Z,6.35
2019-02-16T04:37:39.073Z,4.80
2019-02-16T04:40:04.855Z,6.00
2019-02-16T04:42:30.734Z,5.30
2019-02-16T04:44:56.550Z,4.97
2019-02-16T04:47:22.381Z,5.27
2019-02-16T04:49:48.439Z,4.70
2019-02-16T04:52:14.258Z,5.28
2019-02-16T04:54:40.506Z,4.53
2019-02-16T04:57:06.643Z,4.50
2019-02-16T04:59:32.476Z,4.12
2019-02-16T05:01:58.275Z,4.20
2019-02-16T05:04:24.076Z,4.23
2019-02-16T05:06:49.914Z,4.23
2019-02-16T05:09:15.716Z,4.00
2019-02-16T05:11:41.540Z,4.20
2019-02-16T05:14:07.631Z,4.50
2019-02-16T05:16:33.414Z,4.25
2019-02-16T05:18:59.506Z,5.43
2019-02-16T05:21:25.302Z,4.55
2019-02-16T05:23:51.174Z,5.40
2019-02-16T05:26:16.982Z,4.50
2019-02-16T05:28:42.784Z,4.00
2019-02-16T05:31:08.974Z,5.43
2019-02-16T05:33:35.127Z,5.08
2019-02-16T05:36:00.932Z,5.47
2019-02-16T05:38:27.350Z,5.20
2019-02-16T05:40:53.171Z,4.50
2019-02-16T05:43:19.265Z,4.30
2019-02-16T05:45:45.089Z,4.62
2019-02-16T05:48:11.297Z,4.87
2019-02-16T05:50:37.413Z,4.37
2019-02-16T05:53:03.269Z,4.47
2019-02-16T05:55:32.085Z,4.53
2019-02-16T05:57:58.139Z,5.22
2019-02-16T06:00:28.904Z,4.12
2019-02-16T06:02:54.721Z,4.85
2019-02-16T06:05:20.633Z,4.60
2019-02-16T06:07:46.685Z,4.03
2019-02-16T06:10:15.297Z,4.50
2019-02-16T06:12:41.068Z,4.00
2019-02-16T06:15:07.930Z,3.80
2019-02-16T06:17:33.755Z,5.62
2019-02-16T06:19:59.612Z,4.70
2019-02-16T06:22:29.447Z,4.63
2019-02-16T06:24:55.248Z,4.70
2019-02-16T06:27:24.198Z,4.93
2019-02-16T06:29:50.311Z,4.05
2019-02-16T06:32:16.092Z,5.55
2019-02-16T06:34:41.930Z,5.43
2019-02-16T06:37:21.539Z,4.97
2019-02-16T06:39:48.175Z,5.08
2019-02-16T06:42:13.990Z,5.55
2019-02-16T06:44:39.862Z,7.70
2019-02-16T06:47:05.619Z,6.73
2019-02-16T06:49:31.710Z,5.83
2019-02-16T06:51:57.506Z,6.35
2019-02-16T06:54:23.302Z,6.30
2019-02-16T06:57:06.300Z,7.07
2019-02-16T06:59:32.091Z,5.30
2019-02-16T07:01:57.879Z,6.00
2019-02-16T07:04:23.694Z,6.13
2019-02-16T07:06:49.495Z,5.73
2019-02-16T07:09:15.442Z,7.40
2019-02-16T07:11:41.273Z,5.57
2019-02-16T07:14:07.355Z,5.90
2019-02-16T07:16:41.366Z,5.42
2019-02-16T07:19:11.992Z,4.65
2019-02-16T07:21:38.103Z,4.72
2019-02-16T07:24:03.888Z,5.45
2019-02-16T07:26:30.005Z,3.63
2019-02-16T07:28:56.098Z,4.58
2019-02-16T07:31:22.024Z,5.37
2019-02-16T07:33:47.963Z,5.03
2019-02-16T07:36:13.750Z,5.37
2019-02-16T07:38:39.558Z,4.63
2019-02-16T07:41:05.624Z,5.70
2019-02-16T07:43:38.955Z,5.80
2019-02-16T07:46:15.492Z,7.97
2019-02-16T07:48:43.226Z,9.60
2019-02-16T07:51:17.255Z,7.70
2019-02-16T07:53:45.242Z,8.08
2019-02-16T07:56:12.953Z,8.30
2019-02-16T07:58:43.476Z,8.48
2019-02-16T08:01:14.175Z,8.37
2019-02-16T08:03:47.958Z,8.87
2019-02-16T08:06:28.020Z,9.90
2019-02-16T08:09:02.957Z,9.63
2019-02-16T08:11:35.359Z,11.97
2019-02-16T08:14:19.794Z,12.10
2019-02-16T08:16:53.578Z,21.67
2019-02-16T08:19:23.017Z,11.00
2019-02-16T08:21:53.932Z,8.97
2019-02-16T08:24:24.671Z,9.20
2019-02-16T08:26:55.086Z,9.07
2019-02-16T08:29:28.872Z,8.30
2019-02-16T08:31:59.870Z,9.10
2019-02-16T08:34:30.750Z,7.50
2019-02-16T08:37:01.768Z,8.77
2019-02-16T08:39:29.743Z,9.10
2019-02-16T08:42:09.950Z,7.90
2019-02-16T08:44:43.574Z,7.27
2019-02-16T08:47:20.644Z,6.90
2019-02-16T08:49:51.163Z,8.17
2019-02-16T08:52:18.831Z,10.83
2019-02-16T08:55:03.377Z,8.77
2019-02-16T08:57:46.186Z,14.50
2019-02-16T09:00:19.659Z,9.00
2019-02-16T09:02:47.380Z,8.70
2019-02-16T09:05:15.127Z,10.60
2019-02-16T09:07:55.021Z,9.50
2019-02-16T09:10:25.963Z,10.30
2019-02-16T09:12:53.945Z,10.60
2019-02-16T09:15:33.886Z,9.37
2019-02-16T09:18:01.562Z,8.80
2019-02-16T09:20:29.300Z,8.93
2019-02-16T09:22:59.761Z,8.20
2019-02-16T09:25:30.666Z,11.30
2019-02-16T09:27:58.387Z,10.73
2019-02-16T09:30:41.656Z,10.27
2019-02-16T09:33:12.186Z,10.10
2019-02-16T09:35:43.047Z,9.13
2019-02-16T09:38:27.654Z,11.50
2019-02-16T09:41:12.069Z,10.10
2019-02-16T09:43:42.848Z,8.80
2019-02-16T09:46:22.442Z,7.80
2019-02-16T09:49:02.442Z,7.37
2019-02-16T09:51:42.178Z,7.10
2019-02-16T09:54:16.371Z,7.57
2019-02-16T09:56:59.152Z,6.90
2019-02-16T09:59:35.435Z,8.07
2019-02-16T10:02:03.393Z,6.53
2019-02-16T10:04:34.411Z,7.63
2019-02-16T10:07:20.613Z,7.10
2019-02-16T10:12:41.189Z,6.00
2019-02-16T10:15:20.893Z,5.80
2019-02-16T10:17:48.587Z,6.83
2019-02-16T10:20:19.165Z,6.50
2019-02-16T10:22:55.026Z,7.23
2019-02-16T10:25:31.541Z,6.50
2019-02-16T10:28:11.410Z,4.97
2019-02-16T10:30:42.144Z,5.37
2019-02-16T10:33:09.836Z,6.07
2019-02-16T10:35:54.399Z,5.50
2019-02-16T10:38:39.534Z,5.70
2019-02-16T10:41:23.630Z,6.57
2019-02-16T10:43:57.973Z,6.30
2019-02-16T10:46:25.685Z,5.33
2019-02-16T10:48:56.200Z,5.20
2019-02-16T10:51:25.022Z,5.33
2019-02-16T10:54:00.912Z,5.43
2019-02-16T10:56:28.724Z,4.87
2019-02-16T10:59:13.097Z,5.00
2019-02-16T11:01:41.101Z,4.73
2019-02-16T11:04:20.723Z,4.90
2019-02-16T11:06:51.314Z,3.57
2019-02-16T11:09:19.006Z,3.90
2019-02-16T11:12:03.688Z,4.07
2019-02-16T11:14:31.375Z,3.70
2019-02-16T11:17:08.088Z,3.30
2019-02-16T11:19:54.063Z,3.40
2019-02-16T11:22:38.808Z,3.80
2019-02-16T11:25:26.297Z,3.83
2019-02-16T11:27:54.259Z,2.80
2019-02-16T11:30:21.960Z,3.80
2019-02-16T11:33:01.716Z,3.77
2019-02-16T11:35:29.428Z,3.67
2019-02-16T11:37:57.157Z,4.10
2019-02-16T11:40:30.723Z,3.60
2019-02-16T11:43:01.482Z,3.60
2019-02-16T11:45:35.052Z,3.57
2019-02-16T11:48:19.556Z,3.67
2019-02-16T11:50:59.363Z,3.43
2019-02-16T11:53:27.080Z,3.33
2019-02-16T11:55:54.770Z,2.83
2019-02-16T11:58:34.236Z,2.60
2019-02-16T12:01:01.919Z,2.40
2019-02-16T12:03:29.736Z,3.30
2019-02-16T12:06:00.222Z,2.30
2019-02-16T12:08:45.302Z,2.57
2019-02-16T12:11:33.841Z,2.40
2019-02-16T12:14:18.614Z,2.33
2019-02-16T12:16:55.467Z,2.33
2019-02-16T12:19:29.788Z,3.00
2019-02-16T12:22:09.898Z,2.33
2019-02-16T12:24:41.118Z,2.53
2019-02-16T12:27:29.237Z,3.23
2019-02-16T12:30:00.400Z,2.77
2019-02-16T12:32:42.846Z,2.70
2019-02-16T12:37:47.191Z,3.10
2019-02-16T12:40:17.635Z,2.70
2019-02-16T12:42:45.349Z,3.10
2019-02-16T12:45:21.380Z,2.77
2019-02-16T12:47:52.001Z,3.03
2019-02-16T12:50:25.584Z,2.90
2019-02-16T12:52:53.556Z,2.37
2019-02-16T12:55:21.307Z,2.87
2019-02-16T12:57:51.569Z,2.70
2019-02-16T13:00:31.760Z,2.43
2019-02-16T13:03:05.250Z,2.87
2019-02-16T13:05:50.538Z,2.70
2019-02-16T13:08:27.043Z,2.20
2019-02-16T13:11:00.673Z,2.23
2019-02-16T13:13:28.677Z,2.40
2019-02-16T13:15:56.688Z,2.27
2019-02-16T13:18:27.158Z,2.50
2019-02-16T13:20:57.680Z,3.00
2019-02-16T13:23:31.399Z,2.37
2019-02-16T13:26:17.123Z,2.53
2019-02-16T13:29:00.285Z,2.33
2019-02-16T13:31:33.872Z,2.27
2019-02-16T13:34:16.272Z,2.27
2019-02-16T13:37:00.780Z,2.70
2019-02-16T13:39:40.551Z,2.30
2019-02-16T13:42:10.834Z,2.30
2019-02-16T13:44:44.143Z,3.10
2019-02-16T13:47:15.507Z,1.90
2019-02-16T13:49:45.977Z,2.60
2019-02-16T13:52:26.100Z,3.00
2019-02-16T13:55:06.439Z,2.27
2019-02-16T13:57:51.315Z,2.83
2019-02-16T14:00:24.843Z,3.00
2019-02-16T14:02:55.121Z,2.47
2019-02-16T14:05:35.996Z,3.50
2019-02-16T14:08:15.384Z,2.40
2019-02-16T14:10:59.761Z,2.63
2019-02-16T14:13:27.726Z,2.30
2019-02-16T14:15:55.685Z,2.67
2019-02-16T14:18:21.515Z,2.93
2019-02-16T14:20:47.614Z,2.13
2019-02-16T14:23:13.393Z,2.37
2019-02-16T14:25:44.919Z,2.17
2019-02-16T14:28:08.815Z,2.60
2019-02-16T14:30:34.653Z,2.43
2019-02-16T14:33:00.448Z,2.70
2019-02-16T14:35:26.242Z,2.40
2019-02-16T14:37:59.944Z,4.93
2019-02-16T14:40:27.653Z,6.30
2019-02-16T14:42:53.502Z,5.53
2019-02-16T14:45:19.594Z,5.30
2019-02-16T14:47:45.690Z,5.40
2019-02-16T14:50:11.637Z,5.77
2019-02-16T14:52:37.728Z,7.03
2019-02-16T14:55:07.604Z,8.13
2019-02-16T14:57:33.424Z,6.77
2019-02-16T14:59:59.226Z,7.47
2019-02-16T15:02:25.012Z,7.83
2019-02-16T15:04:51.099Z,7.43
2019-02-16T15:07:17.146Z,6.97
2019-02-16T15:09:42.951Z,7.20
2019-02-16T15:12:09.954Z,7.27
2019-02-16T15:14:35.805Z,6.60
2019-02-16T15:17:01.609Z,7.63
2019-02-16T15:19:27.401Z,8.13
2019-02-16T15:21:53.201Z,6.53
2019-02-16T15:24:19.402Z,7.50
2019-02-16T15:26:45.483Z,7.77
2019-02-16T15:29:11.376Z,6.67
2019-02-16T15:31:37.172Z,6.83
2019-02-16T15:34:03.250Z,8.00
2019-02-16T15:36:30.599Z,7.70
2019-02-16T15:38:56.752Z,7.07
2019-02-16T15:41:22.787Z,6.90
2019-02-16T15:43:48.582Z,8.70
2019-02-16T15:46:14.424Z,9.30
2019-02-16T15:48:40.242Z,8.07
2019-02-16T15:51:06.390Z,10.13
2019-02-16T15:53:32.436Z,9.03
2019-02-16T15:55:58.532Z,8.77
2019-02-16T15:58:24.787Z,8.87
2019-02-16T16:00:50.691Z,9.90
2019-02-16T16:03:16.547Z,8.40
2019-02-16T16:05:42.376Z,10.43
2019-02-16T16:08:12.922Z,9.27
2019-02-16T16:10:43.564Z,10.50
2019-02-16T16:13:11.569Z,9.23
2019-02-16T16:15:47.926Z,8.33
2019-02-16T16:18:15.637Z,9.33
2019-02-16T16:21:00.020Z,8.97
2019-02-16T16:23:44.711Z,8.90
2019-02-16T16:26:29.081Z,8.40
2019-02-16T16:29:02.861Z,9.67
2019-02-16T16:31:36.604Z,9.10
2019-02-16T16:34:13.588Z,7.33
2019-02-16T16:36:44.542Z,8.97
2019-02-16T16:39:15.052Z,8.10
2019-02-16T16:41:51.608Z,8.53
2019-02-16T16:44:25.240Z,8.83
2019-02-16T16:46:55.833Z,9.83
2019-02-16T16:49:23.534Z,8.43
2019-02-16T16:51:54.077Z,8.60
2019-02-16T16:54:38.140Z,9.10
2019-02-16T16:57:26.481Z,10.70
2019-02-16T16:59:57.286Z,10.03
2019-02-16T17:02:40.486Z,11.00
2019-02-16T17:05:08.304Z,9.43
2019-02-16T17:07:36.108Z,8.53
2019-02-16T17:10:19.766Z,8.60
2019-02-16T17:13:04.092Z,9.53
2019-02-16T17:15:43.539Z,9.30
2019-02-16T17:18:23.878Z,8.17
2019-02-16T17:21:08.369Z,8.93
2019-02-16T17:23:54.195Z,9.50
2019-02-16T17:26:40.349Z,9.10
2019-02-16T17:29:23.535Z,10.10
2019-02-16T17:31:51.511Z,8.40
2019-02-16T17:34:19.246Z,8.60
2019-02-16T17:36:52.842Z,9.43
2019-02-16T17:39:32.654Z,8.10
2019-02-16T17:42:12.447Z,8.10
2019-02-16T17:44:58.361Z,8.83
2019-02-16T17:47:26.206Z,8.47
2019-02-16T17:50:10.977Z,8.90
2019-02-16T17:52:50.799Z,7.50
2019-02-16T17:55:21.337Z,9.27
2019-02-16T17:58:01.098Z,9.85
2019-02-16T18:00:32.116Z,9.03
2019-02-16T18:05:51.212Z,8.40
2019-02-16T18:08:18.933Z,9.20
2019-02-16T18:10:49.694Z,8.85
2019-02-16T18:13:17.395Z,8.18
2019-02-16T18:15:57.465Z,8.55
2019-02-16T18:18:34.245Z,15.98
2019-02-16T18:21:14.383Z,13.18
2019-02-16T18:23:42.095Z,17.75
2019-02-16T18:26:15.391Z,15.40
2019-02-16T18:28:59.609Z,18.17
2019-02-16T18:31:36.433Z,16.32
2019-02-16T18:34:22.905Z,16.07
2019-02-16T18:36:50.596Z,16.65
2019-02-16T18:39:24.559Z,13.93
2019-02-16T18:41:52.551Z,17.85
2019-02-16T18:44:22.950Z,13.30
2019-02-16T18:46:53.694Z,10.65
2019-02-16T18:49:21.687Z,10.75
2019-02-16T18:52:06.301Z,11.65
2019-02-16T18:54:46.724Z,10.28
2019-02-16T18:57:15.007Z,10.55
2019-02-16T19:02:38.103Z,11.60
2019-02-16T19:05:18.727Z,11.33
2019-02-16T19:07:49.576Z,10.08
2019-02-16T19:10:23.364Z,9.80
2019-02-16T19:12:51.069Z,10.60
2019-02-16T19:15:18.797Z,9.25
2019-02-16T19:17:55.535Z,11.55
2019-02-16T19:20:29.324Z,12.82
2019-02-16T19:23:05.712Z,12.50
2019-02-16T19:25:39.509Z,16.40
2019-02-16T19:28:10.320Z,15.95
2019-02-16T19:30:47.197Z,15.13
2019-02-16T19:33:33.914Z,12.33
2019-02-16T19:36:04.649Z,10.72
2019-02-16T19:38:53.450Z,10.98
2019-02-16T19:41:36.478Z,9.40
2019-02-16T19:44:04.215Z,10.60
2019-02-16T19:46:38.501Z,9.90
2019-02-16T19:49:12.317Z,9.78
2019-02-16T19:51:43.296Z,10.93
2019-02-16T19:54:11.102Z,10.18
2019-02-16T19:56:45.179Z,12.13
2019-02-16T19:59:21.950Z,11.60
2019-02-16T20:01:49.937Z,12.30
2019-02-16T20:07:26.835Z,12.00
2019-02-16T20:09:54.854Z,10.60
2019-02-16T20:12:22.825Z,11.03
2019-02-16T20:15:07.555Z,10.95
2019-02-16T20:17:35.265Z,10.13
2019-02-16T20:20:03.107Z,10.88
2019-02-16T20:22:31.727Z,9.80
2019-02-16T20:25:05.300Z,10.98
2019-02-16T20:27:37.678Z,10.70
2019-02-16T20:30:15.969Z,11.75
2019-02-16T20:32:49.272Z,14.20
2019-02-16T20:35:23.122Z,13.93
2019-02-16T20:37:51.269Z,13.22
2019-02-16T20:40:21.502Z,13.62
2019-02-16T20:42:49.232Z,14.28
2019-02-16T20:45:19.676Z,12.25
2019-02-16T20:47:53.797Z,12.23
2019-02-16T20:50:21.811Z,10.13
2019-02-16T20:53:06.219Z,9.55
2019-02-16T20:55:49.696Z,9.25
2019-02-16T20:58:34.555Z,9.85
2019-02-16T21:01:17.670Z,9.78
2019-02-16T21:03:48.097Z,10.53
2019-02-16T21:06:18.880Z,10.05
2019-02-16T21:11:39.751Z,8.88
2019-02-16T21:14:12.981Z,10.00
2019-02-16T21:16:57.480Z,9.30
2019-02-16T21:19:34.550Z,9.50
2019-02-16T21:22:02.569Z,10.18
2019-02-16T21:24:48.528Z,11.12
2019-02-16T21:27:19.528Z,9.95
2019-02-16T21:29:47.240Z,12.45
2019-02-16T21:32:14.990Z,13.40
2019-02-16T21:34:55.154Z,11.63
2019-02-16T21:37:22.867Z,13.70
2019-02-16T21:40:02.560Z,13.98
2019-02-16T21:42:41.697Z,11.33
2019-02-16T21:45:12.522Z,11.83
2019-02-16T21:47:46.173Z,11.78
2019-02-16T21:50:19.845Z,13.03
2019-02-16T21:52:47.819Z,12.18
2019-02-16T21:55:21.362Z,13.18
2019-02-16T21:58:08.334Z,13.75
2019-02-16T22:00:37.916Z,11.68
2019-02-16T22:03:11.530Z,12.40
2019-02-16T22:05:42.302Z,12.80
2019-02-16T22:08:19.115Z,11.40
2019-02-16T22:10:51.349Z,11.75
2019-02-16T22:13:17.317Z,11.48
2019-02-16T22:15:43.112Z,11.10
2019-02-16T22:18:08.925Z,13.60
2019-02-16T22:20:34.715Z,11.03
2019-02-16T22:23:00.616Z,11.83
2019-02-16T22:25:26.421Z,14.40
2019-02-16T22:27:54.911Z,14.77
2019-02-16T22:30:20.736Z,12.37
2019-02-16T22:32:49.225Z,12.00
2019-02-16T22:35:15.003Z,12.35
2019-02-16T22:37:45.438Z,12.27
2019-02-16T22:40:11.234Z,11.78
2019-02-16T22:42:39.810Z,11.80
2019-02-16T22:45:10.184Z,13.25
2019-02-16T22:47:36.063Z,12.75
2019-02-16T22:50:02.296Z,12.37
2019-02-16T22:52:28.604Z,11.40
2019-02-16T22:54:54.400Z,12.53
2019-02-16T22:57:20.224Z,12.03
2019-02-16T22:59:46.311Z,13.37
2019-02-16T23:02:12.729Z,12.73
2019-02-16T23:04:41.696Z,15.08
2019-02-16T23:07:07.790Z,14.70
2019-02-16T23:09:35.198Z,13.10
2019-02-16T23:12:00.990Z,11.90
2019-02-16T23:14:31.958Z,11.53
2019-02-16T23:16:58.018Z,9.35
2019-02-16T23:19:26.602Z,11.20
2019-02-16T23:21:52.422Z,9.48
2019-02-16T23:24:18.314Z,9.60
2019-02-16T23:26:44.443Z,10.53
2019-02-16T23:29:10.260Z,11.40
2019-02-16T23:31:36.308Z,11.50
2019-02-16T23:34:02.245Z,13.55
2019-02-16T23:36:32.986Z,14.33
2019-02-16T23:38:58.807Z,14.18
2019-02-16T23:41:27.648Z,14.70
2019-02-16T23:43:53.707Z,14.55
2019-02-16T23:46:22.511Z,10.95
2019-02-16T23:48:48.352Z,11.97
2019-02-16T23:51:16.908Z,12.50
2019-02-16T23:53:42.721Z,13.00
2019-02-16T23:56:28.666Z,10.77
2019-02-16T23:58:54.759Z,11.73
